DAL23 KSLC-KLAX
Flight info
| Callsign | DAL23 |
|---|---|
| Flight time | 1h 27m |
| Altitude | 40000 |
| Route | ARCHZ1 WINEN LAKRR HAKMN ANJLL4 |
| Aircraft | A359/H-SDE2E3GHIJ3J4J5LM1ORWXY/LB1D1 |
Departure
| Time | 2026-04-21 02:47 |
|---|---|
| Airport | Salt Lake City International Airport (KSLC) |
Arrival
| Time | 2026-04-21 04:14 |
|---|---|
| Airport | Los Angeles International Airport (KLAX) |
| Time | Latitude | Longitude | Altitude | Speed | Heading |
|---|---|---|---|---|---|
| 2026-04-21 02:00 | 40.78927 | -111.99067 | 4241 ft | 0 kts | 175° |
| 2026-04-21 02:37 | 40.78942 | -111.99068 | 4240 ft | 4 kts | 177° |
| 2026-04-21 02:37 | 40.78969 | -111.99069 | 4239 ft | 4 kts | 185° |
| 2026-04-21 02:37 | 40.78995 | -111.99062 | 4240 ft | 4 kts | 210° |
| 2026-04-21 02:38 | 40.79009 | -111.99043 | 4238 ft | 1 kts | 265° |
| 2026-04-21 02:41 | 40.79005 | -111.99085 | 4242 ft | 20 kts | 264° |
| 2026-04-21 02:41 | 40.78999 | -111.99242 | 4242 ft | 12 kts | 287° |
| 2026-04-21 02:41 | 40.79065 | -111.99296 | 4242 ft | 12 kts | 341° |
| 2026-04-21 02:42 | 40.79099 | -111.99366 | 4242 ft | 7 kts | 275° |
| 2026-04-21 02:42 | 40.79120 | -111.99415 | 4242 ft | 4 kts | 333° |
| 2026-04-21 02:42 | 40.79165 | -111.99428 | 4242 ft | 12 kts | 350° |
| 2026-04-21 02:42 | 40.79277 | -111.99441 | 4241 ft | 18 kts | 355° |
| 2026-04-21 02:43 | 40.79413 | -111.99455 | 4241 ft | 21 kts | 355° |
| 2026-04-21 02:43 | 40.79568 | -111.99475 | 4241 ft | 24 kts | 354° |
| 2026-04-21 02:43 | 40.79739 | -111.99495 | 4241 ft | 26 kts | 355° |
| 2026-04-21 02:43 | 40.79925 | -111.99515 | 4242 ft | 28 kts | 355° |
| 2026-04-21 02:44 | 40.80130 | -111.99539 | 4242 ft | 30 kts | 354° |
| 2026-04-21 02:44 | 40.80336 | -111.99564 | 4242 ft | 30 kts | 355° |
| 2026-04-21 02:44 | 40.80528 | -111.99586 | 4241 ft | 26 kts | 355° |
| 2026-04-21 02:44 | 40.80687 | -111.99605 | 4241 ft | 24 kts | 355° |
| 2026-04-21 02:45 | 40.80728 | -111.99610 | 4241 ft | 0 kts | 355° |
| 2026-04-21 02:45 | 40.80775 | -111.99627 | 4241 ft | 15 kts | 334° |
| 2026-04-21 02:45 | 40.80822 | -111.99710 | 4241 ft | 6 kts | 269° |
| 2026-04-21 02:45 | 40.80782 | -111.99787 | 4241 ft | 18 kts | 244° |
| 2026-04-21 02:46 | 40.80742 | -111.99901 | 4241 ft | 10 kts | 217° |
| 2026-04-21 02:46 | 40.80624 | -111.99910 | 4241 ft | 34 kts | 175° |
| 2026-04-21 02:46 | 40.80045 | -111.99843 | 4242 ft | 134 kts | 175° |
| 2026-04-21 02:46 | 40.78843 | -111.99704 | 4603 ft | 195 kts | 175° |
| 2026-04-21 02:47 | 40.77372 | -111.99529 | 5472 ft | 227 kts | 174° |
| 2026-04-21 02:47 | 40.76342 | -111.99399 | 6184 ft | 222 kts | 174° |
| 2026-04-21 02:47 | 40.74839 | -111.99210 | 7006 ft | 212 kts | 175° |
| 2026-04-21 02:47 | 40.72806 | -111.98913 | 7480 ft | 236 kts | 174° |
| 2026-04-21 02:48 | 40.71668 | -111.98741 | 7678 ft | 251 kts | 174° |
| 2026-04-21 02:48 | 40.69274 | -111.98393 | 8308 ft | 268 kts | 175° |
| 2026-04-21 02:48 | 40.68037 | -111.98216 | 8781 ft | 270 kts | 175° |
| 2026-04-21 02:48 | 40.66160 | -111.97953 | 9545 ft | 272 kts | 176° |
| 2026-04-21 02:49 | 40.64257 | -111.97689 | 10215 ft | 278 kts | 176° |
| 2026-04-21 02:49 | 40.62270 | -111.97417 | 10550 ft | 295 kts | 176° |
| 2026-04-21 02:49 | 40.60193 | -111.97133 | 10853 ft | 311 kts | 176° |
| 2026-04-21 02:49 | 40.58008 | -111.96834 | 11316 ft | 319 kts | 176° |
| 2026-04-21 02:50 | 40.55786 | -111.96528 | 11932 ft | 322 kts | 176° |
| 2026-04-21 02:50 | 40.53537 | -111.96220 | 12584 ft | 326 kts | 176° |
| 2026-04-21 02:50 | 40.51268 | -111.95909 | 13217 ft | 329 kts | 176° |
| 2026-04-21 02:50 | 40.48973 | -111.95596 | 13833 ft | 332 kts | 176° |
| 2026-04-21 02:51 | 40.46659 | -111.95280 | 14423 ft | 335 kts | 176° |
| 2026-04-21 02:51 | 40.44331 | -111.95003 | 15026 ft | 337 kts | 178° |
| 2026-04-21 02:51 | 40.41982 | -111.94849 | 15632 ft | 339 kts | 179° |
| 2026-04-21 02:51 | 40.39611 | -111.94712 | 16219 ft | 343 kts | 179° |
| 2026-04-21 02:52 | 40.37212 | -111.94565 | 16831 ft | 346 kts | 179° |
| 2026-04-21 02:52 | 40.34824 | -111.94410 | 17446 ft | 349 kts | 179° |
| 2026-04-21 02:52 | 40.32380 | -111.94248 | 18054 ft | 352 kts | 179° |
| 2026-04-21 02:52 | 40.29920 | -111.94081 | 18568 ft | 355 kts | 179° |
| 2026-04-21 02:53 | 40.27431 | -111.93944 | 18979 ft | 359 kts | 182° |
| 2026-04-21 02:53 | 40.24926 | -111.94159 | 19466 ft | 361 kts | 188° |
| 2026-04-21 02:53 | 40.22416 | -111.94546 | 19950 ft | 365 kts | 189° |
| 2026-04-21 02:53 | 40.19916 | -111.94950 | 20436 ft | 368 kts | 189° |
| 2026-04-21 02:54 | 40.17362 | -111.95361 | 20924 ft | 372 kts | 189° |
| 2026-04-21 02:54 | 40.14777 | -111.95772 | 21376 ft | 375 kts | 189° |
| 2026-04-21 02:54 | 40.12171 | -111.96186 | 21844 ft | 379 kts | 189° |
| 2026-04-21 02:54 | 40.09534 | -111.96580 | 22296 ft | 382 kts | 189° |
| 2026-04-21 02:55 | 40.06877 | -111.96963 | 22700 ft | 386 kts | 189° |
| 2026-04-21 02:55 | 40.04226 | -111.97347 | 23098 ft | 390 kts | 189° |
| 2026-04-21 02:55 | 40.01540 | -111.97737 | 23501 ft | 394 kts | 189° |
| 2026-04-21 02:55 | 39.98805 | -111.98135 | 23889 ft | 397 kts | 189° |
| 2026-04-21 02:56 | 39.96052 | -111.98537 | 24300 ft | 399 kts | 189° |
| 2026-04-21 02:56 | 39.90479 | -111.99349 | 25111 ft | 404 kts | 189° |
| 2026-04-21 02:56 | 39.87669 | -111.99759 | 25527 ft | 407 kts | 189° |
| 2026-04-21 02:57 | 39.84882 | -112.00165 | 25932 ft | 410 kts | 189° |
| 2026-04-21 02:57 | 39.82036 | -112.00580 | 26336 ft | 412 kts | 188° |
| 2026-04-21 02:57 | 39.79168 | -112.00999 | 26757 ft | 415 kts | 188° |
| 2026-04-21 02:57 | 39.76284 | -112.01419 | 27223 ft | 418 kts | 188° |
| 2026-04-21 02:58 | 39.73374 | -112.01840 | 27492 ft | 423 kts | 188° |
| 2026-04-21 02:58 | 39.70427 | -112.02267 | 27648 ft | 429 kts | 188° |
| 2026-04-21 02:58 | 39.67439 | -112.02700 | 27803 ft | 435 kts | 188° |
| 2026-04-21 02:58 | 39.64417 | -112.03138 | 28024 ft | 439 kts | 188° |
| 2026-04-21 02:59 | 39.61368 | -112.03579 | 28313 ft | 442 kts | 188° |
| 2026-04-21 02:59 | 39.58303 | -112.04022 | 28615 ft | 445 kts | 188° |
| 2026-04-21 02:59 | 39.55210 | -112.04469 | 28934 ft | 447 kts | 188° |
| 2026-04-21 02:59 | 39.52112 | -112.04916 | 29269 ft | 449 kts | 188° |
| 2026-04-21 03:00 | 39.49038 | -112.05360 | 29595 ft | 451 kts | 188° |
| 2026-04-21 03:00 | 39.45914 | -112.05812 | 29935 ft | 453 kts | 188° |
| 2026-04-21 03:00 | 39.42771 | -112.06266 | 30228 ft | 455 kts | 188° |
| 2026-04-21 03:00 | 39.39608 | -112.06713 | 30484 ft | 458 kts | 187° |
| 2026-04-21 03:01 | 39.36424 | -112.07162 | 30784 ft | 460 kts | 187° |
| 2026-04-21 03:01 | 39.33217 | -112.07615 | 31073 ft | 463 kts | 187° |
| 2026-04-21 03:01 | 39.29998 | -112.08071 | 31386 ft | 466 kts | 187° |
| 2026-04-21 03:01 | 39.26767 | -112.08528 | 31691 ft | 468 kts | 187° |
| 2026-04-21 03:02 | 39.23564 | -112.08981 | 31985 ft | 470 kts | 187° |
| 2026-04-21 03:02 | 39.20299 | -112.09443 | 32282 ft | 472 kts | 187° |
| 2026-04-21 03:02 | 39.17017 | -112.09943 | 32558 ft | 475 kts | 189° |
| 2026-04-21 03:02 | 39.13790 | -112.10859 | 32813 ft | 476 kts | 198° |
| 2026-04-21 03:03 | 39.10705 | -112.12427 | 33093 ft | 477 kts | 207° |
| 2026-04-21 03:03 | 39.07777 | -112.14466 | 33390 ft | 478 kts | 210° |
| 2026-04-21 03:03 | 39.04891 | -112.16588 | 33708 ft | 480 kts | 210° |
| 2026-04-21 03:03 | 39.01975 | -112.18734 | 33929 ft | 482 kts | 210° |
| 2026-04-21 03:04 | 38.99080 | -112.20855 | 34118 ft | 485 kts | 210° |
| 2026-04-21 03:04 | 38.96143 | -112.23000 | 34355 ft | 486 kts | 210° |
| 2026-04-21 03:04 | 38.93192 | -112.25149 | 34697 ft | 485 kts | 210° |
| 2026-04-21 03:04 | 38.90251 | -112.27287 | 35023 ft | 484 kts | 210° |
| 2026-04-21 03:05 | 38.87324 | -112.29412 | 35354 ft | 483 kts | 210° |
| 2026-04-21 03:05 | 38.84404 | -112.31529 | 35712 ft | 481 kts | 210° |
| 2026-04-21 03:05 | 38.81490 | -112.33640 | 36048 ft | 480 kts | 210° |
| 2026-04-21 03:05 | 38.78576 | -112.35749 | 36374 ft | 479 kts | 210° |
| 2026-04-21 03:06 | 38.75674 | -112.37847 | 36698 ft | 479 kts | 210° |
| 2026-04-21 03:06 | 38.72810 | -112.39915 | 37027 ft | 478 kts | 210° |
| 2026-04-21 03:06 | 38.69910 | -112.42008 | 37379 ft | 476 kts | 210° |
| 2026-04-21 03:06 | 38.67029 | -112.44085 | 37762 ft | 473 kts | 210° |
| 2026-04-21 03:07 | 38.64170 | -112.46145 | 38155 ft | 470 kts | 209° |
| 2026-04-21 03:07 | 38.61339 | -112.48182 | 38687 ft | 464 kts | 209° |
| 2026-04-21 03:07 | 38.58563 | -112.50177 | 38995 ft | 462 kts | 209° |
| 2026-04-21 03:07 | 38.55755 | -112.52194 | 39176 ft | 462 kts | 209° |
| 2026-04-21 03:08 | 38.52944 | -112.54212 | 39344 ft | 463 kts | 209° |
| 2026-04-21 03:08 | 38.50136 | -112.56225 | 39550 ft | 462 kts | 210° |
| 2026-04-21 03:08 | 38.47326 | -112.58238 | 39754 ft | 462 kts | 210° |
| 2026-04-21 03:08 | 38.44514 | -112.60250 | 39940 ft | 463 kts | 210° |
| 2026-04-21 03:09 | 38.38876 | -112.64280 | 39999 ft | 465 kts | 210° |
| 2026-04-21 03:09 | 38.33255 | -112.68290 | 39998 ft | 465 kts | 210° |
| 2026-04-21 03:10 | 38.27607 | -112.72312 | 39993 ft | 465 kts | 210° |
| 2026-04-21 03:10 | 38.21952 | -112.76331 | 39993 ft | 465 kts | 210° |
| 2026-04-21 03:11 | 38.16334 | -112.80318 | 39987 ft | 463 kts | 209° |
| 2026-04-21 03:11 | 38.10712 | -112.84300 | 39985 ft | 461 kts | 209° |
| 2026-04-21 03:12 | 38.05106 | -112.88264 | 39978 ft | 460 kts | 209° |
| 2026-04-21 03:12 | 37.99523 | -112.92162 | 39975 ft | 460 kts | 210° |
| 2026-04-21 03:13 | 37.93924 | -112.96134 | 40012 ft | 460 kts | 210° |
| 2026-04-21 03:13 | 37.88320 | -113.00086 | 40051 ft | 460 kts | 209° |
| 2026-04-21 03:14 | 37.82748 | -113.04002 | 40074 ft | 460 kts | 209° |
| 2026-04-21 03:14 | 37.77138 | -113.07946 | 40091 ft | 460 kts | 210° |
| 2026-04-21 03:15 | 37.71594 | -113.11997 | 40087 ft | 460 kts | 210° |
| 2026-04-21 03:15 | 37.66094 | -113.16063 | 40089 ft | 457 kts | 210° |
| 2026-04-21 03:16 | 37.60597 | -113.20100 | 40078 ft | 457 kts | 210° |
| 2026-04-21 03:16 | 37.55096 | -113.24118 | 40046 ft | 457 kts | 210° |
| 2026-04-21 03:17 | 37.49624 | -113.28103 | 40019 ft | 457 kts | 210° |
| 2026-04-21 03:17 | 37.44110 | -113.32111 | 39984 ft | 457 kts | 210° |
| 2026-04-21 03:18 | 37.38601 | -113.36108 | 39957 ft | 456 kts | 210° |
| 2026-04-21 03:18 | 37.33140 | -113.40065 | 39930 ft | 455 kts | 210° |
| 2026-04-21 03:19 | 37.27645 | -113.44042 | 39934 ft | 455 kts | 210° |
| 2026-04-21 03:19 | 37.22176 | -113.47992 | 39944 ft | 452 kts | 210° |
| 2026-04-21 03:20 | 37.16714 | -113.51930 | 39952 ft | 452 kts | 210° |
| 2026-04-21 03:20 | 37.11257 | -113.55858 | 39964 ft | 451 kts | 210° |
| 2026-04-21 03:21 | 37.05817 | -113.59767 | 39961 ft | 451 kts | 210° |
| 2026-04-21 03:21 | 37.00425 | -113.63626 | 39953 ft | 440 kts | 210° |
| 2026-04-21 03:22 | 36.95199 | -113.67373 | 39943 ft | 429 kts | 210° |
| 2026-04-21 03:22 | 36.90058 | -113.71052 | 39929 ft | 428 kts | 210° |
| 2026-04-21 03:23 | 36.84882 | -113.74749 | 39915 ft | 427 kts | 210° |
| 2026-04-21 03:23 | 36.79716 | -113.78433 | 39897 ft | 426 kts | 210° |
| 2026-04-21 03:24 | 36.74563 | -113.82098 | 39890 ft | 426 kts | 210° |
| 2026-04-21 03:24 | 36.69445 | -113.85735 | 39887 ft | 426 kts | 210° |
| 2026-04-21 03:25 | 36.64292 | -113.89392 | 39871 ft | 426 kts | 210° |
| 2026-04-21 03:25 | 36.59134 | -113.93046 | 39872 ft | 426 kts | 210° |
| 2026-04-21 03:26 | 36.54846 | -113.96079 | 39870 ft | 426 kts | 210° |
| 2026-04-21 03:26 | 36.48840 | -114.00321 | 39870 ft | 426 kts | 210° |
| 2026-04-21 03:27 | 36.43684 | -114.03957 | 39850 ft | 426 kts | 210° |
| 2026-04-21 03:27 | 36.38519 | -114.07593 | 39851 ft | 426 kts | 210° |
| 2026-04-21 03:28 | 36.33354 | -114.11223 | 39846 ft | 426 kts | 210° |
| 2026-04-21 03:28 | 36.28188 | -114.14850 | 39833 ft | 426 kts | 210° |
| 2026-04-21 03:29 | 36.23058 | -114.18444 | 39832 ft | 426 kts | 210° |
| 2026-04-21 03:29 | 36.17878 | -114.22068 | 39833 ft | 426 kts | 210° |
| 2026-04-21 03:30 | 36.12695 | -114.25691 | 39830 ft | 426 kts | 210° |
| 2026-04-21 03:30 | 36.07875 | -114.29856 | 39824 ft | 426 kts | 222° |
| 2026-04-21 03:31 | 36.03795 | -114.35179 | 39828 ft | 427 kts | 227° |
| 2026-04-21 03:31 | 35.99844 | -114.40657 | 39826 ft | 427 kts | 228° |
| 2026-04-21 03:32 | 35.95896 | -114.46127 | 39838 ft | 425 kts | 228° |
| 2026-04-21 03:32 | 35.91977 | -114.51545 | 39850 ft | 425 kts | 228° |
| 2026-04-21 03:33 | 35.88032 | -114.56989 | 39865 ft | 425 kts | 228° |
| 2026-04-21 03:33 | 35.84759 | -114.61500 | 39817 ft | 425 kts | 228° |
| 2026-04-21 03:34 | 35.80815 | -114.66927 | 39887 ft | 425 kts | 228° |
| 2026-04-21 03:34 | 35.76868 | -114.72350 | 39888 ft | 424 kts | 228° |
| 2026-04-21 03:35 | 35.73014 | -114.77636 | 39917 ft | 406 kts | 228° |
| 2026-04-21 03:35 | 35.69263 | -114.82774 | 39927 ft | 402 kts | 227° |
| 2026-04-21 03:36 | 35.65521 | -114.87891 | 39927 ft | 402 kts | 227° |
| 2026-04-21 03:36 | 35.61776 | -114.93005 | 39927 ft | 402 kts | 227° |
| 2026-04-21 03:37 | 35.58049 | -114.98086 | 39927 ft | 402 kts | 227° |
| 2026-04-21 03:37 | 35.54303 | -115.03184 | 39948 ft | 401 kts | 228° |
| 2026-04-21 03:38 | 35.50577 | -115.08250 | 39942 ft | 399 kts | 228° |
| 2026-04-21 03:38 | 35.46789 | -115.13240 | 39943 ft | 399 kts | 226° |
| 2026-04-21 03:39 | 35.42984 | -115.18182 | 39945 ft | 398 kts | 226° |
| 2026-04-21 03:39 | 35.39208 | -115.23098 | 39946 ft | 398 kts | 226° |
| 2026-04-21 03:40 | 35.35408 | -115.28046 | 39951 ft | 398 kts | 226° |
| 2026-04-21 03:40 | 35.31608 | -115.32989 | 39958 ft | 398 kts | 226° |
| 2026-04-21 03:41 | 35.27812 | -115.37920 | 39945 ft | 397 kts | 226° |
| 2026-04-21 03:41 | 35.24025 | -115.42831 | 39945 ft | 397 kts | 226° |
| 2026-04-21 03:42 | 35.20236 | -115.47739 | 39943 ft | 397 kts | 226° |
| 2026-04-21 03:42 | 35.16467 | -115.52613 | 39928 ft | 397 kts | 226° |
| 2026-04-21 03:43 | 35.12668 | -115.57520 | 39915 ft | 397 kts | 226° |
| 2026-04-21 03:43 | 35.08920 | -115.62338 | 39742 ft | 384 kts | 226° |
| 2026-04-21 03:44 | 35.07084 | -115.64680 | 39509 ft | 380 kts | 225° |
| 2026-04-21 03:44 | 35.05255 | -115.67015 | 39262 ft | 379 kts | 225° |
| 2026-04-21 03:44 | 35.03428 | -115.69346 | 39032 ft | 380 kts | 225° |
| 2026-04-21 03:44 | 35.01598 | -115.71680 | 38803 ft | 380 kts | 225° |
| 2026-04-21 03:45 | 34.99789 | -115.73987 | 38577 ft | 381 kts | 225° |
| 2026-04-21 03:45 | 34.97955 | -115.76324 | 38303 ft | 381 kts | 225° |
| 2026-04-21 03:45 | 34.96114 | -115.78670 | 38016 ft | 382 kts | 225° |
| 2026-04-21 03:45 | 34.94274 | -115.81011 | 37733 ft | 383 kts | 225° |
| 2026-04-21 03:46 | 34.92428 | -115.83360 | 37444 ft | 384 kts | 225° |
| 2026-04-21 03:46 | 34.90576 | -115.85714 | 37180 ft | 385 kts | 225° |
| 2026-04-21 03:46 | 34.88745 | -115.88040 | 36919 ft | 385 kts | 225° |
| 2026-04-21 03:46 | 34.86878 | -115.90411 | 36662 ft | 391 kts | 225° |
| 2026-04-21 03:47 | 34.84955 | -115.92849 | 36365 ft | 407 kts | 225° |
| 2026-04-21 03:47 | 34.82946 | -115.95395 | 35907 ft | 425 kts | 225° |
| 2026-04-21 03:47 | 34.80881 | -115.98012 | 35414 ft | 430 kts | 225° |
| 2026-04-21 03:47 | 34.78805 | -116.00640 | 34918 ft | 430 kts | 226° |
| 2026-04-21 03:48 | 34.76736 | -116.03262 | 34436 ft | 427 kts | 226° |
| 2026-04-21 03:48 | 34.74713 | -116.05843 | 33959 ft | 424 kts | 226° |
| 2026-04-21 03:48 | 34.72682 | -116.08434 | 33461 ft | 421 kts | 226° |
| 2026-04-21 03:48 | 34.70662 | -116.11007 | 32921 ft | 419 kts | 226° |
| 2026-04-21 03:49 | 34.68655 | -116.13563 | 32404 ft | 416 kts | 226° |
| 2026-04-21 03:49 | 34.66656 | -116.16105 | 31901 ft | 415 kts | 225° |
| 2026-04-21 03:49 | 34.64664 | -116.18636 | 31408 ft | 413 kts | 225° |
| 2026-04-21 03:49 | 34.62683 | -116.21151 | 30920 ft | 411 kts | 225° |
| 2026-04-21 03:50 | 34.60709 | -116.23656 | 30436 ft | 409 kts | 225° |
| 2026-04-21 03:50 | 34.58746 | -116.26144 | 30036 ft | 407 kts | 225° |
| 2026-04-21 03:50 | 34.56813 | -116.28593 | 29873 ft | 407 kts | 225° |
| 2026-04-21 03:50 | 34.54853 | -116.31074 | 29856 ft | 407 kts | 225° |
| 2026-04-21 03:51 | 34.50941 | -116.36022 | 29861 ft | 406 kts | 225° |
| 2026-04-21 03:51 | 34.47031 | -116.40957 | 29863 ft | 406 kts | 225° |
| 2026-04-21 03:52 | 34.43149 | -116.45906 | 29551 ft | 402 kts | 227° |
| 2026-04-21 03:52 | 34.41428 | -116.48615 | 28601 ft | 410 kts | 235° |
| 2026-04-21 03:52 | 34.40019 | -116.51659 | 27781 ft | 416 kts | 241° |
| 2026-04-21 03:53 | 34.38733 | -116.54793 | 27204 ft | 414 kts | 242° |
| 2026-04-21 03:53 | 34.37476 | -116.57881 | 27048 ft | 402 kts | 241° |
| 2026-04-21 03:53 | 34.36256 | -116.60867 | 26911 ft | 389 kts | 241° |
| 2026-04-21 03:53 | 34.35068 | -116.63764 | 26606 ft | 382 kts | 241° |
| 2026-04-21 03:54 | 34.33897 | -116.66604 | 26089 ft | 381 kts | 240° |
| 2026-04-21 03:54 | 34.32721 | -116.69470 | 25606 ft | 379 kts | 241° |
| 2026-04-21 03:54 | 34.31571 | -116.72337 | 25112 ft | 377 kts | 241° |
| 2026-04-21 03:54 | 34.30432 | -116.75186 | 24586 ft | 376 kts | 241° |
| 2026-04-21 03:55 | 34.29288 | -116.78038 | 24048 ft | 377 kts | 241° |
| 2026-04-21 03:55 | 34.28145 | -116.80879 | 23533 ft | 375 kts | 241° |
| 2026-04-21 03:55 | 34.27005 | -116.83709 | 23001 ft | 373 kts | 241° |
| 2026-04-21 03:55 | 34.25876 | -116.86509 | 22521 ft | 368 kts | 241° |
| 2026-04-21 03:56 | 34.24759 | -116.89278 | 22065 ft | 364 kts | 241° |
| 2026-04-21 03:56 | 34.23653 | -116.92016 | 21598 ft | 360 kts | 240° |
| 2026-04-21 03:56 | 34.22561 | -116.94715 | 21216 ft | 357 kts | 241° |
| 2026-04-21 03:56 | 34.21460 | -116.97433 | 20969 ft | 362 kts | 240° |
| 2026-04-21 03:57 | 34.20351 | -117.00172 | 20752 ft | 363 kts | 241° |
| 2026-04-21 03:57 | 34.19223 | -117.02858 | 20535 ft | 364 kts | 238° |
| 2026-04-21 03:57 | 34.17837 | -117.05487 | 20342 ft | 378 kts | 236° |
| 2026-04-21 03:57 | 34.16611 | -117.08333 | 20126 ft | 385 kts | 243° |
| 2026-04-21 03:58 | 34.15685 | -117.11379 | 19917 ft | 387 kts | 250° |
| 2026-04-21 03:58 | 34.14998 | -117.14513 | 19689 ft | 385 kts | 252° |
| 2026-04-21 03:58 | 34.14348 | -117.17656 | 19494 ft | 386 kts | 252° |
| 2026-04-21 03:58 | 34.13710 | -117.20810 | 19329 ft | 386 kts | 252° |
| 2026-04-21 03:59 | 34.13085 | -117.23957 | 19110 ft | 385 kts | 253° |
| 2026-04-21 03:59 | 34.12465 | -117.27110 | 18907 ft | 384 kts | 253° |
| 2026-04-21 03:59 | 34.11853 | -117.30245 | 18700 ft | 383 kts | 253° |
| 2026-04-21 04:00 | 34.10635 | -117.36494 | 18279 ft | 381 kts | 253° |
| 2026-04-21 04:00 | 34.09998 | -117.39548 | 18031 ft | 378 kts | 250° |
| 2026-04-21 04:00 | 34.09223 | -117.42580 | 17799 ft | 376 kts | 249° |
| 2026-04-21 04:00 | 34.08435 | -117.45581 | 17575 ft | 369 kts | 249° |
| 2026-04-21 04:01 | 34.07697 | -117.48435 | 17388 ft | 341 kts | 249° |
| 2026-04-21 04:01 | 34.06911 | -117.51010 | 17190 ft | 314 kts | 243° |
| 2026-04-21 04:01 | 34.06095 | -117.53321 | 16981 ft | 292 kts | 242° |
| 2026-04-21 04:01 | 34.05312 | -117.55491 | 16751 ft | 271 kts | 242° |
| 2026-04-21 04:02 | 34.04585 | -117.57507 | 16553 ft | 254 kts | 242° |
| 2026-04-21 04:02 | 34.03902 | -117.59398 | 16326 ft | 238 kts | 242° |
| 2026-04-21 04:02 | 34.03245 | -117.61210 | 15833 ft | 235 kts | 242° |
| 2026-04-21 04:02 | 34.02598 | -117.62994 | 15548 ft | 228 kts | 242° |
| 2026-04-21 04:03 | 34.01927 | -117.64832 | 15578 ft | 251 kts | 242° |
| 2026-04-21 04:03 | 34.01189 | -117.66868 | 15446 ft | 280 kts | 244° |
| 2026-04-21 04:03 | 34.00583 | -117.69227 | 15010 ft | 303 kts | 255° |
| 2026-04-21 04:03 | 34.00291 | -117.71695 | 14334 ft | 299 kts | 259° |
| 2026-04-21 04:04 | 34.00068 | -117.74193 | 13439 ft | 300 kts | 260° |
| 2026-04-21 04:04 | 33.99844 | -117.76702 | 12469 ft | 301 kts | 260° |
| 2026-04-21 04:04 | 33.99612 | -117.79224 | 11490 ft | 304 kts | 259° |
| 2026-04-21 04:04 | 33.99368 | -117.81760 | 10520 ft | 305 kts | 259° |
| 2026-04-21 04:05 | 33.99121 | -117.84313 | 9553 ft | 306 kts | 259° |
| 2026-04-21 04:05 | 33.98876 | -117.86842 | 8758 ft | 300 kts | 260° |
| 2026-04-21 04:05 | 33.98709 | -117.89275 | 8049 ft | 293 kts | 271° |
| 2026-04-21 04:05 | 33.98880 | -117.91686 | 7373 ft | 283 kts | 266° |
| 2026-04-21 04:06 | 33.98768 | -117.94020 | 6706 ft | 276 kts | 262° |
| 2026-04-21 04:06 | 33.98515 | -117.96299 | 6010 ft | 272 kts | 259° |
| 2026-04-21 04:06 | 33.98169 | -117.98529 | 5310 ft | 268 kts | 257° |
| 2026-04-21 04:06 | 33.97720 | -118.00678 | 4831 ft | 258 kts | 251° |
| 2026-04-21 04:07 | 33.97264 | -118.02683 | 4640 ft | 239 kts | 257° |
| 2026-04-21 04:07 | 33.97066 | -118.04644 | 4626 ft | 233 kts | 265° |
| 2026-04-21 04:07 | 33.96959 | -118.06559 | 4604 ft | 227 kts | 264° |
| 2026-04-21 04:07 | 33.96790 | -118.08442 | 4595 ft | 221 kts | 261° |
| 2026-04-21 04:08 | 33.96599 | -118.10188 | 4593 ft | 205 kts | 261° |
| 2026-04-21 04:08 | 33.96432 | -118.11819 | 4487 ft | 187 kts | 262° |
| 2026-04-21 04:08 | 33.96282 | -118.13324 | 4255 ft | 177 kts | 261° |
| 2026-04-21 04:08 | 33.96130 | -118.14795 | 3974 ft | 177 kts | 261° |
| 2026-04-21 04:09 | 33.95979 | -118.16271 | 3705 ft | 178 kts | 262° |
| 2026-04-21 04:09 | 33.95829 | -118.17749 | 3467 ft | 178 kts | 262° |
| 2026-04-21 04:09 | 33.95678 | -118.19227 | 3220 ft | 177 kts | 262° |
| 2026-04-21 04:09 | 33.95528 | -118.20694 | 2976 ft | 173 kts | 262° |
| 2026-04-21 04:10 | 33.95387 | -118.22082 | 2764 ft | 161 kts | 262° |
| 2026-04-21 04:10 | 33.95256 | -118.23375 | 2540 ft | 150 kts | 262° |
| 2026-04-21 04:10 | 33.95133 | -118.24581 | 2347 ft | 139 kts | 262° |
| 2026-04-21 04:10 | 33.95017 | -118.25712 | 2167 ft | 134 kts | 262° |
| 2026-04-21 04:11 | 33.94904 | -118.26818 | 2000 ft | 131 kts | 262° |
| 2026-04-21 04:11 | 33.94793 | -118.27908 | 1832 ft | 131 kts | 261° |
| 2026-04-21 04:11 | 33.94683 | -118.28984 | 1637 ft | 128 kts | 261° |
| 2026-04-21 04:11 | 33.94562 | -118.30052 | 1424 ft | 129 kts | 260° |
| 2026-04-21 04:12 | 33.94434 | -118.31112 | 1258 ft | 130 kts | 261° |
| 2026-04-21 04:12 | 33.94322 | -118.32192 | 1114 ft | 130 kts | 262° |
| 2026-04-21 04:12 | 33.94229 | -118.33270 | 986 ft | 130 kts | 264° |
| 2026-04-21 04:12 | 33.94142 | -118.34347 | 788 ft | 129 kts | 264° |
| 2026-04-21 04:13 | 33.94018 | -118.35413 | 632 ft | 129 kts | 262° |
| 2026-04-21 04:13 | 33.93922 | -118.36481 | 439 ft | 127 kts | 264° |
| 2026-04-21 04:13 | 33.93814 | -118.37535 | 308 ft | 128 kts | 262° |
| 2026-04-21 04:13 | 33.93702 | -118.38589 | 176 ft | 126 kts | 263° |
| 2026-04-21 04:14 | 33.93602 | -118.39590 | 133 ft | 115 kts | 263° |
| 2026-04-21 04:14 | 33.93515 | -118.40431 | 129 ft | 85 kts | 263° |
| 2026-04-21 04:14 | 33.93481 | -118.40936 | 128 ft | 43 kts | 277° |
| 2026-04-21 04:14 | 33.93512 | -118.41099 | 125 ft | 0 kts | 290° |
| 2026-04-21 04:15 | 33.93537 | -118.41177 | 124 ft | 6 kts | 292° |
| 2026-04-21 04:15 | 33.93556 | -118.41214 | 129 ft | 17 kts | 310° |
| 2026-04-21 04:15 | 33.93666 | -118.41271 | 126 ft | 17 kts | 352° |
| 2026-04-21 04:15 | 33.93747 | -118.41243 | 125 ft | 7 kts | 53° |
| 2026-04-21 04:16 | 33.93771 | -118.41184 | 129 ft | 8 kts | 54° |
| 2026-04-21 04:16 | 33.93823 | -118.41163 | 129 ft | 9 kts | 5° |
| 2026-04-21 04:16 | 33.93891 | -118.41168 | 128 ft | 11 kts | 354° |
| 2026-04-21 04:16 | 33.93976 | -118.41179 | 128 ft | 14 kts | 353° |
| 2026-04-21 04:17 | 33.94080 | -118.41194 | 129 ft | 16 kts | 353° |
| 2026-04-21 04:17 | 33.94203 | -118.41213 | 126 ft | 19 kts | 353° |
| 2026-04-21 04:17 | 33.94344 | -118.41232 | 122 ft | 22 kts | 353° |
| 2026-04-21 04:17 | 33.94495 | -118.41255 | 129 ft | 23 kts | 352° |
| 2026-04-21 04:18 | 33.94630 | -118.41278 | 126 ft | 18 kts | 353° |
| 2026-04-21 04:18 | 33.94716 | -118.41188 | 124 ft | 19 kts | 70° |
| 2026-04-21 04:18 | 33.94738 | -118.41046 | 132 ft | 15 kts | 82° |
| 2026-04-21 04:18 | 33.94728 | -118.40935 | 125 ft | 13 kts | 137° |
| 2026-04-21 04:19 | 33.94670 | -118.40910 | 126 ft | 14 kts | 169° |
| 2026-04-21 04:19 | 33.94608 | -118.40898 | 126 ft | 9 kts | 171° |
| 2026-04-21 04:19 | 33.94563 | -118.40913 | 125 ft | 5 kts | 230° |
| 2026-04-21 04:19 | 33.94550 | -118.40957 | 132 ft | 0 kts | 258° |
| 2026-04-21 04:20 | 33.94548 | -118.40970 | 130 ft | 7 kts | 259° |
| 2026-04-21 04:20 | 33.94546 | -118.40988 | 126 ft | 0 kts | 262° |